createdAt,value
2019-02-26T00:00:10.271Z,68.20
2019-02-26T00:02:48.588Z,67.60
2019-02-26T00:05:21.366Z,74.00
2019-02-26T00:07:53.295Z,70.00
2019-02-26T00:10:26.828Z,67.00
2019-02-26T00:12:58.439Z,70.60
2019-02-26T00:15:33.388Z,73.40
2019-02-26T00:18:07.478Z,83.20
2019-02-26T00:20:39.086Z,75.80
2019-02-26T00:23:10.173Z,75.80
2019-02-26T00:25:42.273Z,80.60
2019-02-26T00:28:15.384Z,71.20
2019-02-26T00:30:47.197Z,81.00
2019-02-26T00:33:22.109Z,75.00
2019-02-26T00:35:52.492Z,77.20
2019-02-26T00:38:23.930Z,74.00
2019-02-26T00:40:57.202Z,80.60
2019-02-26T00:43:30.175Z,76.60
2019-02-26T00:46:03.147Z,88.60
2019-02-26T00:48:36.113Z,82.80
2019-02-26T00:51:08.466Z,79.00
2019-02-26T00:53:40.043Z,85.80
2019-02-26T00:56:11.726Z,82.20
2019-02-26T00:58:44.156Z,78.40
2019-02-26T01:01:17.735Z,68.60
2019-02-26T01:03:51.793Z,77.20
2019-02-26T01:06:24.645Z,81.80
2019-02-26T01:08:56.889Z,73.00
2019-02-26T01:11:30.121Z,81.60
2019-02-26T01:14:02.128Z,78.00
2019-02-26T01:16:33.764Z,66.80
2019-02-26T01:19:05.333Z,65.40
2019-02-26T01:21:37.948Z,63.00
2019-02-26T01:24:09.437Z,69.60
2019-02-26T01:26:42.913Z,67.40
2019-02-26T01:29:18.620Z,64.40
2019-02-26T01:31:48.347Z,66.60
2019-02-26T01:34:20.976Z,71.60
2019-02-26T01:36:55.370Z,81.40
2019-02-26T01:39:27.288Z,69.00
2019-02-26T01:41:59.065Z,75.80
2019-02-26T01:44:32.466Z,70.40
2019-02-26T01:47:04.687Z,63.60
2019-02-26T01:49:36.508Z,78.00
2019-02-26T01:52:08.425Z,77.60
2019-02-26T01:54:41.466Z,79.40
2019-02-26T01:57:13.339Z,86.80
2019-02-26T01:59:47.452Z,80.80
2019-02-26T02:02:20.316Z,79.80
2019-02-26T02:04:54.995Z,75.80
2019-02-26T02:07:28.846Z,85.40
2019-02-26T02:10:00.556Z,85.20
2019-02-26T02:12:34.407Z,75.60
2019-02-26T02:15:10.060Z,68.80
2019-02-26T02:17:41.610Z,76.60
2019-02-26T02:20:18.005Z,72.80
2019-02-26T02:22:47.812Z,76.20
2019-02-26T02:25:19.594Z,81.00
2019-02-26T02:27:54.150Z,80.00
2019-02-26T02:30:28.121Z,83.80
2019-02-26T02:33:00.087Z,93.60
2019-02-26T02:35:32.173Z,86.80
2019-02-26T02:38:04.923Z,86.00
2019-02-26T02:40:39.903Z,89.80
2019-02-26T02:43:10.051Z,86.80
2019-02-26T02:45:43.417Z,82.00
2019-02-26T02:48:16.262Z,83.80
2019-02-26T02:50:47.887Z,80.80
2019-02-26T02:53:21.002Z,83.80
2019-02-26T02:55:53.830Z,84.00
2019-02-26T02:58:26.079Z,90.80
2019-02-26T03:01:00.209Z,97.20
2019-02-26T03:03:31.451Z,99.00
2019-02-26T03:06:06.512Z,91.20
2019-02-26T03:08:35.763Z,93.00
2019-02-26T03:11:07.643Z,88.00
2019-02-26T03:13:40.789Z,85.20
2019-02-26T03:16:15.778Z,85.60
2019-02-26T03:18:46.509Z,85.60
2019-02-26T03:21:20.152Z,86.40
2019-02-26T03:23:51.177Z,96.20
2019-02-26T03:26:23.537Z,92.00
2019-02-26T03:28:55.815Z,101.40
2019-02-26T03:31:32.752Z,91.80
2019-02-26T03:34:08.806Z,95.20
2019-02-26T03:36:36.781Z,86.60
2019-02-26T03:39:08.670Z,90.80
2019-02-26T03:41:40.736Z,94.60
2019-02-26T03:44:12.415Z,90.00
2019-02-26T03:46:44.039Z,93.80
2019-02-26T03:49:16.643Z,97.00
2019-02-26T03:51:48.349Z,97.80
2019-02-26T03:54:20.400Z,96.60
2019-02-26T03:56:52.261Z,96.00
2019-02-26T03:59:23.956Z,104.80
2019-02-26T04:01:56.476Z,90.60
2019-02-26T04:04:30.503Z,109.00
2019-02-26T04:07:03.724Z,98.20
2019-02-26T04:09:34.409Z,91.00
2019-02-26T04:12:07.629Z,90.00
2019-02-26T04:14:39.576Z,91.60
2019-02-26T04:17:11.213Z,87.40
2019-02-26T04:19:44.470Z,100.00
2019-02-26T04:22:35.757Z,90.40
2019-02-26T04:25:36.443Z,87.60
2019-02-26T04:28:20.395Z,84.80
2019-02-26T04:31:20.123Z,81.20
2019-02-26T04:34:27.367Z,93.80
2019-02-26T04:37:44.240Z,89.80
2019-02-26T04:40:33.016Z,101.00
2019-02-26T04:43:47.481Z,100.80
2019-02-26T04:46:48.830Z,83.20
2019-02-26T04:49:20.343Z,92.20
2019-02-26T04:51:52.077Z,89.60
2019-02-26T04:54:24.827Z,88.20
2019-02-26T04:56:57.109Z,87.40
2019-02-26T04:59:29.871Z,64.20
2019-02-26T05:02:03.014Z,81.60
2019-02-26T05:04:36.809Z,80.20
2019-02-26T05:07:12.743Z,77.40
2019-02-26T05:09:43.675Z,66.20
2019-02-26T05:12:15.314Z,71.60
2019-02-26T05:14:47.024Z,81.40
2019-02-26T05:17:21.314Z,76.20
2019-02-26T05:19:52.035Z,54.20
2019-02-26T05:22:25.595Z,70.00
2019-02-26T05:24:57.225Z,67.80
2019-02-26T05:27:29.059Z,68.20
2019-02-26T05:30:00.731Z,71.20
2019-02-26T05:32:35.542Z,70.20
2019-02-26T05:35:07.676Z,66.80
2019-02-26T05:37:40.996Z,72.00
2019-02-26T05:40:15.470Z,73.60
2019-02-26T05:42:46.686Z,70.00
2019-02-26T05:45:21.503Z,72.80
2019-02-26T05:47:56.101Z,74.80
2019-02-26T05:50:26.586Z,77.20
2019-02-26T05:53:01.689Z,71.40
2019-02-26T05:55:32.087Z,78.60
2019-02-26T05:58:03.757Z,66.80
2019-02-26T06:00:35.951Z,81.40
2019-02-26T06:03:09.647Z,83.20
2019-02-26T06:05:45.765Z,84.80
2019-02-26T06:08:14.849Z,92.80
2019-02-26T06:10:46.842Z,80.60
2019-02-26T06:13:19.071Z,91.20
2019-02-26T06:15:55.214Z,86.40
2019-02-26T06:18:29.016Z,86.40
2019-02-26T06:21:01.380Z,86.20
2019-02-26T06:23:34.535Z,91.60
2019-02-26T06:26:14.256Z,79.00
2019-02-26T06:28:52.780Z,76.40
2019-02-26T06:31:27.468Z,80.60
2019-02-26T06:34:01.590Z,69.20
2019-02-26T06:36:33.546Z,73.20
2019-02-26T06:39:06.130Z,77.00
2019-02-26T06:41:40.153Z,72.60
2019-02-26T06:44:12.306Z,83.20
2019-02-26T06:46:44.757Z,86.00
2019-02-26T06:49:17.738Z,74.40
2019-02-26T06:51:52.035Z,76.00
2019-02-26T06:54:26.751Z,81.80
2019-02-26T06:57:02.430Z,81.80
2019-02-26T06:59:36.853Z,90.80
2019-02-26T07:02:11.022Z,85.00
2019-02-26T07:04:42.695Z,96.20
2019-02-26T07:07:14.683Z,86.60
2019-02-26T07:09:46.824Z,78.60
2019-02-26T07:12:21.296Z,75.00
2019-02-26T07:14:53.522Z,78.60
2019-02-26T07:17:26.903Z,87.60
2019-02-26T07:20:00.799Z,89.00
2019-02-26T07:22:34.690Z,64.20
2019-02-26T07:25:10.686Z,71.00
2019-02-26T07:27:42.448Z,74.40
2019-02-26T07:30:14.658Z,71.80
2019-02-26T07:32:48.242Z,71.20
2019-02-26T07:35:20.699Z,71.20
2019-02-26T07:37:54.545Z,72.80
2019-02-26T07:40:30.531Z,67.60
2019-02-26T07:43:06.969Z,71.60
2019-02-26T07:45:36.698Z,70.80
2019-02-26T07:48:09.192Z,63.40
2019-02-26T07:50:43.976Z,67.00
2019-02-26T07:53:17.127Z,64.00
2019-02-26T07:55:49.205Z,74.40
2019-02-26T07:58:22.314Z,67.60
2019-02-26T08:00:54.178Z,68.40
2019-02-26T08:03:26.893Z,70.40
2019-02-26T08:06:04.776Z,70.20
2019-02-26T08:08:40.258Z,63.40
2019-02-26T08:11:18.647Z,70.20
2019-02-26T08:13:54.142Z,72.20
2019-02-26T08:16:29.987Z,75.20
2019-02-26T08:19:02.516Z,72.20
2019-02-26T08:21:34.286Z,70.60
2019-02-26T08:24:07.361Z,70.60
2019-02-26T08:26:40.540Z,63.40
2019-02-26T08:29:13.422Z,67.60
2019-02-26T08:31:47.490Z,73.40
2019-02-26T08:34:23.783Z,67.60
2019-02-26T08:36:56.270Z,120.00
2019-02-26T08:39:28.463Z,101.00
2019-02-26T08:42:18.842Z,90.40
2019-02-26T08:44:54.216Z,79.60
2019-02-26T08:47:26.731Z,67.60
2019-02-26T08:50:01.190Z,89.20
2019-02-26T08:52:36.303Z,105.40
2019-02-26T08:55:10.757Z,68.60
2019-02-26T08:57:45.262Z,82.40
2019-02-26T09:00:19.698Z,70.40
2019-02-26T09:02:54.461Z,75.20
2019-02-26T09:05:29.063Z,64.80
2019-02-26T09:08:00.263Z,74.80
2019-02-26T09:10:32.898Z,78.40
2019-02-26T09:13:06.269Z,79.60
2019-02-26T09:15:40.842Z,77.00
2019-02-26T09:18:14.587Z,80.40
2019-02-26T09:20:53.234Z,78.40
2019-02-26T09:23:28.790Z,89.80
2019-02-26T09:26:02.576Z,90.20
2019-02-26T09:28:38.500Z,113.20
2019-02-26T09:31:12.290Z,97.20
2019-02-26T09:33:48.297Z,96.00
2019-02-26T09:36:23.570Z,96.40
2019-02-26T09:38:55.258Z,92.40
2019-02-26T09:41:27.762Z,92.40
2019-02-26T09:44:01.955Z,92.40
2019-02-26T09:46:36.431Z,89.00
2019-02-26T09:49:12.617Z,89.20
2019-02-26T09:51:47.732Z,90.20
2019-02-26T09:54:22.567Z,89.40
2019-02-26T09:56:58.914Z,83.60
2019-02-26T09:59:33.526Z,84.80
2019-02-26T10:02:06.641Z,77.40
2019-02-26T10:04:42.459Z,82.60
2019-02-26T10:07:16.728Z,79.80
2019-02-26T10:09:51.008Z,83.40
2019-02-26T10:12:25.012Z,86.20
2019-02-26T10:15:04.681Z,78.80
2019-02-26T10:17:40.960Z,80.40
2019-02-26T10:20:17.736Z,81.20
2019-02-26T10:22:53.170Z,77.20
2019-02-26T10:25:29.331Z,77.20
2019-02-26T10:28:06.068Z,81.40
2019-02-26T10:30:41.718Z,69.40
2019-02-26T10:33:17.391Z,80.00
2019-02-26T10:35:51.123Z,69.80
2019-02-26T10:38:28.423Z,77.40
2019-02-26T10:41:01.671Z,77.00
2019-02-26T10:43:34.170Z,84.00
2019-02-26T10:46:07.231Z,79.00
2019-02-26T10:48:41.619Z,76.40
2019-02-26T10:51:16.738Z,80.20
2019-02-26T10:53:49.049Z,77.20
2019-02-26T10:56:22.000Z,79.00
2019-02-26T10:58:57.766Z,83.40
2019-02-26T11:01:30.996Z,81.20
2019-02-26T11:04:08.835Z,86.40
2019-02-26T11:06:45.200Z,87.40
2019-02-26T11:09:21.844Z,76.60
2019-02-26T11:11:57.546Z,82.80
2019-02-26T11:14:31.231Z,76.20
2019-02-26T11:17:05.228Z,82.80
2019-02-26T11:19:41.859Z,78.40
2019-02-26T11:22:18.236Z,81.00
2019-02-26T11:24:53.386Z,79.60
2019-02-26T11:27:27.423Z,74.40
2019-02-26T11:30:02.075Z,80.80
2019-02-26T11:32:37.904Z,86.60
2019-02-26T11:35:10.773Z,86.40
2019-02-26T11:37:45.443Z,84.00
2019-02-26T11:40:20.289Z,88.40
2019-02-26T11:42:52.895Z,78.20
2019-02-26T11:45:25.675Z,81.00
2019-02-26T11:48:00.372Z,87.00
2019-02-26T11:50:32.106Z,87.40
2019-02-26T11:53:04.582Z,89.00
2019-02-26T11:55:37.495Z,81.40
2019-02-26T11:58:10.783Z,84.20
2019-02-26T12:00:51.982Z,94.80
2019-02-26T12:06:01.961Z,72.20
2019-02-26T12:08:33.224Z,90.80
2019-02-26T12:11:06.708Z,90.00
2019-02-26T12:13:39.502Z,85.40
2019-02-26T12:16:13.840Z,85.20
2019-02-26T12:18:47.032Z,82.40
2019-02-26T12:21:18.676Z,81.40
2019-02-26T12:23:50.290Z,81.20
2019-02-26T12:26:27.980Z,83.60
2019-02-26T12:29:04.477Z,75.80
2019-02-26T12:31:38.366Z,87.40
2019-02-26T12:34:11.615Z,76.20
2019-02-26T12:36:42.826Z,74.20
2019-02-26T12:39:24.827Z,78.40
2019-02-26T12:41:58.796Z,70.00
2019-02-26T12:44:32.033Z,69.00
2019-02-26T12:47:03.769Z,68.40
2019-02-26T12:49:38.242Z,74.00
2019-02-26T12:52:09.005Z,70.40
2019-02-26T12:54:42.829Z,74.00
2019-02-26T12:57:16.949Z,74.80
2019-02-26T12:59:47.703Z,76.20
2019-02-26T13:02:20.795Z,77.40
2019-02-26T13:04:53.442Z,73.60
2019-02-26T13:07:25.167Z,77.20
2019-02-26T13:10:00.998Z,69.20
2019-02-26T13:12:32.327Z,79.40
2019-02-26T13:15:09.386Z,71.00
2019-02-26T13:17:38.947Z,71.80
2019-02-26T13:20:12.821Z,74.00
2019-02-26T13:22:45.940Z,71.40
2019-02-26T13:25:21.254Z,66.60
2019-02-26T13:27:51.592Z,72.60
2019-02-26T13:30:24.338Z,72.20
2019-02-26T13:32:59.957Z,63.60
2019-02-26T13:35:29.086Z,73.00
2019-02-26T13:38:00.733Z,72.60
2019-02-26T13:40:38.153Z,67.40
2019-02-26T13:43:07.780Z,69.60
2019-02-26T13:45:39.869Z,69.80
2019-02-26T13:48:11.430Z,71.60
2019-02-26T13:50:43.089Z,64.80
2019-02-26T13:53:14.487Z,67.80
2019-02-26T13:55:45.850Z,68.60
2019-02-26T13:58:17.119Z,70.00
2019-02-26T14:00:48.821Z,75.80
2019-02-26T14:03:20.715Z,72.00
2019-02-26T14:05:52.245Z,72.00
2019-02-26T14:08:24.777Z,70.00
2019-02-26T14:10:57.500Z,63.40
2019-02-26T14:13:29.295Z,74.40
2019-02-26T14:16:00.869Z,72.40
2019-02-26T14:18:32.589Z,83.80
2019-02-26T14:21:05.448Z,85.20
2019-02-26T14:23:37.187Z,91.40
2019-02-26T14:26:08.824Z,70.60
2019-02-26T14:28:40.560Z,73.20
2019-02-26T14:31:12.157Z,76.00
2019-02-26T14:33:44.314Z,106.80
2019-02-26T14:36:15.995Z,224.25
2019-02-26T14:38:50.446Z,266.75
2019-02-26T14:41:24.410Z,222.75
2019-02-26T14:43:55.939Z,225.75
2019-02-26T14:46:27.403Z,65.40
2019-02-26T14:48:59.118Z,73.60
2019-02-26T14:51:30.867Z,65.80
2019-02-26T14:54:03.040Z,73.20
2019-02-26T14:56:34.943Z,73.80
2019-02-26T14:59:06.571Z,75.40
2019-02-26T15:01:38.338Z,76.60
2019-02-26T15:04:10.089Z,69.40
2019-02-26T15:06:41.980Z,74.40
2019-02-26T15:09:14.114Z,75.20
2019-02-26T15:11:45.889Z,73.40
2019-02-26T15:14:17.563Z,77.60
2019-02-26T15:16:49.474Z,74.80
2019-02-26T15:19:21.151Z,79.80
2019-02-26T15:21:57.248Z,71.40
2019-02-26T15:24:28.889Z,75.20
2019-02-26T15:27:00.835Z,75.00
2019-02-26T15:29:32.421Z,76.20
2019-02-26T15:32:04.337Z,80.80
2019-02-26T15:34:35.986Z,79.20
2019-02-26T15:37:07.502Z,76.40
2019-02-26T15:39:39.318Z,75.20
2019-02-26T15:42:10.663Z,72.20
2019-02-26T15:44:41.818Z,74.80
2019-02-26T15:47:13.576Z,69.00
2019-02-26T15:49:44.837Z,63.80
2019-02-26T15:52:16.188Z,77.20
2019-02-26T15:54:47.720Z,77.40
2019-02-26T15:57:19.237Z,70.60
2019-02-26T15:59:51.353Z,67.40
2019-02-26T16:02:23.063Z,73.80
2019-02-26T16:04:54.593Z,75.40
2019-02-26T16:07:25.925Z,71.80
2019-02-26T16:09:57.720Z,70.00
2019-02-26T16:12:29.460Z,75.80
2019-02-26T16:15:01.050Z,72.60
2019-02-26T16:17:32.400Z,75.80
2019-02-26T16:20:05.213Z,74.80
2019-02-26T16:22:37.244Z,72.40
2019-02-26T16:25:09.077Z,64.20
2019-02-26T16:27:40.633Z,74.80
2019-02-26T16:30:19.470Z,60.40
2019-02-26T16:32:51.121Z,69.40
2019-02-26T16:35:25.515Z,68.00
2019-02-26T16:37:56.830Z,68.60
2019-02-26T16:40:31.460Z,69.00
2019-02-26T16:43:01.948Z,68.00
2019-02-26T16:45:35.246Z,62.40
2019-02-26T16:48:07.079Z,65.40
2019-02-26T16:50:39.421Z,69.60
2019-02-26T16:53:11.134Z,69.60
2019-02-26T16:55:42.948Z,69.00
2019-02-26T16:58:14.590Z,63.40
2019-02-26T17:00:48.736Z,67.60
2019-02-26T17:03:20.174Z,62.00
2019-02-26T17:05:52.230Z,63.00
2019-02-26T17:08:25.829Z,54.40
2019-02-26T17:10:57.765Z,64.80
2019-02-26T17:13:29.478Z,58.80
2019-02-26T17:16:01.100Z,67.00
2019-02-26T17:18:32.922Z,58.20
2019-02-26T17:21:04.662Z,57.80
2019-02-26T17:23:36.551Z,66.40
2019-02-26T17:26:08.393Z,65.40
2019-02-26T17:28:44.128Z,66.20
2019-02-26T17:31:15.534Z,67.80
2019-02-26T17:33:47.255Z,65.40
2019-02-26T17:36:19.454Z,60.60
2019-02-26T17:38:51.744Z,60.80
2019-02-26T17:41:24.025Z,60.80
2019-02-26T17:43:56.850Z,55.80
2019-02-26T17:46:29.123Z,67.60
2019-02-26T17:49:02.686Z,62.00
2019-02-26T17:51:34.035Z,52.60
2019-02-26T17:54:06.103Z,57.60
2019-02-26T17:56:37.771Z,62.60
2019-02-26T17:59:09.419Z,46.00
2019-02-26T18:01:41.233Z,45.60
2019-02-26T18:04:12.704Z,56.60
2019-02-26T18:06:44.385Z,42.60
2019-02-26T18:09:16.408Z,19.40
2019-02-26T18:11:48.257Z,49.00
2019-02-26T18:14:19.590Z,47.60
2019-02-26T18:16:51.348Z,46.00
2019-02-26T18:19:22.920Z,43.80
2019-02-26T18:21:54.994Z,43.40
2019-02-26T18:24:27.002Z,40.60
2019-02-26T18:26:58.462Z,49.40
2019-02-26T18:29:30.120Z,38.80
2019-02-26T18:32:01.846Z,45.00
2019-02-26T18:34:33.418Z,50.80
2019-02-26T18:37:05.124Z,43.00
2019-02-26T18:39:36.498Z,36.00
2019-02-26T18:42:08.400Z,40.80
2019-02-26T18:44:40.114Z,51.00
2019-02-26T18:47:11.708Z,50.20
2019-02-26T18:49:43.486Z,41.40
2019-02-26T18:52:14.991Z,48.80
2019-02-26T18:54:46.627Z,48.00
2019-02-26T18:57:18.053Z,38.00
2019-02-26T18:59:53.404Z,37.80
2019-02-26T19:02:22.735Z,43.80
2019-02-26T19:04:55.213Z,44.20
2019-02-26T19:07:26.907Z,53.00
2019-02-26T19:09:58.974Z,45.00
2019-02-26T19:12:31.157Z,44.60
2019-02-26T19:15:03.135Z,50.40
2019-02-26T19:17:35.264Z,47.40
2019-02-26T19:20:07.747Z,39.60
2019-02-26T19:22:40.649Z,49.20
2019-02-26T19:25:12.680Z,45.20
2019-02-26T19:27:44.071Z,50.40
2019-02-26T19:30:17.236Z,46.20
2019-02-26T19:32:48.770Z,49.60
2019-02-26T19:35:20.686Z,41.60
2019-02-26T19:37:55.130Z,47.80
2019-02-26T19:40:30.415Z,48.80
2019-02-26T19:43:02.094Z,42.20
2019-02-26T19:45:33.988Z,55.40
2019-02-26T19:48:05.878Z,45.80
2019-02-26T19:50:37.452Z,35.60
2019-02-26T19:53:10.737Z,45.40
2019-02-26T19:55:42.469Z,34.80
2019-02-26T19:58:14.022Z,41.80
2019-02-26T20:00:46.156Z,48.20
2019-02-26T20:03:17.732Z,47.20
2019-02-26T20:05:49.628Z,38.60
2019-02-26T20:08:21.243Z,53.80
2019-02-26T20:10:54.081Z,44.60
2019-02-26T20:13:25.784Z,34.60
2019-02-26T20:15:57.665Z,44.80
2019-02-26T20:18:29.519Z,42.60
2019-02-26T20:21:01.115Z,53.40
2019-02-26T20:23:33.464Z,46.60
2019-02-26T20:26:04.997Z,42.60
2019-02-26T20:28:36.986Z,42.00
2019-02-26T20:31:08.488Z,42.00
2019-02-26T20:33:40.524Z,44.40
2019-02-26T20:36:12.204Z,44.80
2019-02-26T20:38:44.047Z,57.20
2019-02-26T20:41:15.786Z,56.20
2019-02-26T20:43:47.276Z,52.60
2019-02-26T20:46:18.776Z,44.60
2019-02-26T20:48:51.906Z,46.00
2019-02-26T20:51:26.860Z,45.60
2019-02-26T20:53:56.858Z,38.40
2019-02-26T20:56:30.612Z,48.40
2019-02-26T20:59:01.552Z,39.80
2019-02-26T21:01:33.992Z,47.40
2019-02-26T21:04:05.430Z,50.20
2019-02-26T21:06:39.037Z,51.00
2019-02-26T21:09:10.886Z,51.20
2019-02-26T21:11:42.681Z,52.00
2019-02-26T21:14:14.316Z,51.80
2019-02-26T21:16:45.847Z,59.60
2019-02-26T21:19:18.057Z,57.60
2019-02-26T21:21:49.610Z,67.80
2019-02-26T21:24:21.306Z,56.60
2019-02-26T21:26:53.376Z,61.60
2019-02-26T21:29:24.873Z,57.00
2019-02-26T21:31:57.043Z,64.20
2019-02-26T21:34:28.687Z,54.40
2019-02-26T21:37:00.644Z,55.80
2019-02-26T21:39:32.002Z,63.00
2019-02-26T21:42:03.737Z,62.80
2019-02-26T21:44:36.324Z,61.00
2019-02-26T21:47:07.912Z,65.20
2019-02-26T21:49:40.882Z,50.60
2019-02-26T21:52:12.643Z,54.40
2019-02-26T21:54:45.371Z,57.80
2019-02-26T21:57:16.942Z,62.00
2019-02-26T21:59:50.163Z,68.00
2019-02-26T22:02:21.906Z,57.60
2019-02-26T22:04:53.461Z,53.40
2019-02-26T22:07:24.833Z,64.80
2019-02-26T22:09:56.644Z,68.80
2019-02-26T22:12:28.344Z,65.60
2019-02-26T22:15:00.310Z,57.80
2019-02-26T22:17:31.789Z,67.20
2019-02-26T22:20:03.417Z,48.00
2019-02-26T22:22:34.913Z,69.60
2019-02-26T22:25:09.922Z,65.80
2019-02-26T22:27:40.647Z,72.80
2019-02-26T22:30:15.002Z,84.60
2019-02-26T22:32:46.632Z,71.80
2019-02-26T22:35:18.418Z,69.40
2019-02-26T22:37:49.760Z,71.00
2019-02-26T22:40:22.753Z,71.00
2019-02-26T22:42:54.767Z,67.00
2019-02-26T22:45:27.962Z,68.00
2019-02-26T22:47:59.760Z,68.20
2019-02-26T22:50:31.315Z,68.20
2019-02-26T22:53:03.952Z,67.40
2019-02-26T22:55:37.060Z,73.40
2019-02-26T22:58:08.757Z,59.00
2019-02-26T23:01:06.532Z,67.20
2019-02-26T23:03:40.763Z,69.00
2019-02-26T23:06:13.572Z,70.00
2019-02-26T23:08:45.992Z,70.20
2019-02-26T23:11:19.727Z,71.80
2019-02-26T23:13:51.512Z,70.20
2019-02-26T23:16:24.172Z,72.80
2019-02-26T23:18:56.847Z,63.80
2019-02-26T23:21:28.463Z,66.80
2019-02-26T23:24:01.351Z,70.80
2019-02-26T23:26:33.436Z,70.80
2019-02-26T23:29:05.235Z,70.40
2019-02-26T23:31:38.301Z,63.40
2019-02-26T23:34:10.042Z,69.60
2019-02-26T23:36:42.128Z,74.80
2019-02-26T23:39:15.198Z,75.40
2019-02-26T23:41:48.468Z,64.80
2019-02-26T23:44:20.116Z,77.40
2019-02-26T23:46:52.034Z,77.60
2019-02-26T23:49:23.638Z,63.20
2019-02-26T23:51:55.336Z,75.60
2019-02-26T23:54:26.837Z,60.80
2019-02-26T23:56:59.414Z,78.60
2019-02-26T23:59:30.923Z,80.60
